sensor_id;sensor_type;location;lat;lon;timestamp;P1;durP1;ratioP1;P2;durP2;ratioP2
14167;SDS011;7163;50.626;12.922;2023-05-07T00:03:57;34.80;;;21.60;;
14167;SDS011;7163;50.626;12.922;2023-05-07T00:08:58;33.40;;;21.57;;
14167;SDS011;7163;50.626;12.922;2023-05-07T00:13:59;36.00;;;22.90;;
14167;SDS011;7163;50.626;12.922;2023-05-07T00:18:59;34.17;;;22.60;;
14167;SDS011;7163;50.626;12.922;2023-05-07T00:24:00;36.30;;;23.47;;
14167;SDS011;7163;50.626;12.922;2023-05-07T00:29:00;33.90;;;22.43;;
14167;SDS011;7163;50.626;12.922;2023-05-07T00:34:01;32.37;;;21.13;;
14167;SDS011;7163;50.626;12.922;2023-05-07T00:39:01;37.30;;;22.73;;
14167;SDS011;7163;50.626;12.922;2023-05-07T00:44:03;37.53;;;23.10;;
14167;SDS011;7163;50.626;12.922;2023-05-07T00:49:04;36.67;;;23.30;;
14167;SDS011;7163;50.626;12.922;2023-05-07T00:54:05;37.97;;;24.93;;
14167;SDS011;7163;50.626;12.922;2023-05-07T00:59:05;44.43;;;26.50;;
14167;SDS011;7163;50.626;12.922;2023-05-07T01:04:06;40.33;;;26.10;;
14167;SDS011;7163;50.626;12.922;2023-05-07T01:09:07;45.10;;;27.57;;
14167;SDS011;7163;50.626;12.922;2023-05-07T01:14:09;40.37;;;26.47;;
14167;SDS011;7163;50.626;12.922;2023-05-07T01:19:10;40.07;;;25.90;;
14167;SDS011;7163;50.626;12.922;2023-05-07T01:24:14;43.40;;;27.60;;
14167;SDS011;7163;50.626;12.922;2023-05-07T01:29:15;43.20;;;26.33;;
14167;SDS011;7163;50.626;12.922;2023-05-07T01:34:15;49.97;;;28.10;;
14167;SDS011;7163;50.626;12.922;2023-05-07T01:39:18;49.13;;;29.63;;
14167;SDS011;7163;50.626;12.922;2023-05-07T01:44:18;43.00;;;26.97;;
14167;SDS011;7163;50.626;12.922;2023-05-07T01:49:19;40.43;;;26.20;;
14167;SDS011;7163;50.626;12.922;2023-05-07T01:54:20;48.70;;;27.80;;
14167;SDS011;7163;50.626;12.922;2023-05-07T01:59:25;48.30;;;29.77;;
14167;SDS011;7163;50.626;12.922;2023-05-07T02:04:26;46.23;;;27.90;;
14167;SDS011;7163;50.626;12.922;2023-05-07T02:09:26;47.97;;;30.00;;
14167;SDS011;7163;50.626;12.922;2023-05-07T02:14:27;48.83;;;29.40;;
14167;SDS011;7163;50.626;12.922;2023-05-07T02:19:27;52.07;;;28.97;;
14167;SDS011;7163;50.626;12.922;2023-05-07T02:24:27;49.13;;;28.70;;
14167;SDS011;7163;50.626;12.922;2023-05-07T02:29:28;43.37;;;26.90;;
14167;SDS011;7163;50.626;12.922;2023-05-07T02:34:28;45.60;;;27.33;;
14167;SDS011;7163;50.626;12.922;2023-05-07T02:39:28;45.17;;;27.97;;
14167;SDS011;7163;50.626;12.922;2023-05-07T02:44:29;49.70;;;26.67;;
14167;SDS011;7163;50.626;12.922;2023-05-07T02:49:31;43.73;;;27.03;;
14167;SDS011;7163;50.626;12.922;2023-05-07T02:54:32;41.83;;;25.40;;
14167;SDS011;7163;50.626;12.922;2023-05-07T02:59:32;39.03;;;25.03;;
14167;SDS011;7163;50.626;12.922;2023-05-07T03:04:33;42.53;;;24.70;;
14167;SDS011;7163;50.626;12.922;2023-05-07T03:09:33;39.73;;;25.20;;
14167;SDS011;7163;50.626;12.922;2023-05-07T03:14:33;30.93;;;20.70;;
14167;SDS011;7163;50.626;12.922;2023-05-07T03:19:34;32.67;;;20.67;;
14167;SDS011;7163;50.626;12.922;2023-05-07T03:24:34;31.33;;;19.70;;
14167;SDS011;7163;50.626;12.922;2023-05-07T03:29:35;35.00;;;21.60;;
14167;SDS011;7163;50.626;12.922;2023-05-07T03:34:35;30.57;;;20.60;;
14167;SDS011;7163;50.626;12.922;2023-05-07T03:39:35;33.77;;;21.07;;
14167;SDS011;7163;50.626;12.922;2023-05-07T03:44:36;31.80;;;19.70;;
14167;SDS011;7163;50.626;12.922;2023-05-07T03:49:36;30.67;;;19.13;;
14167;SDS011;7163;50.626;12.922;2023-05-07T03:54:37;30.30;;;19.23;;
14167;SDS011;7163;50.626;12.922;2023-05-07T03:59:37;29.90;;;19.23;;
14167;SDS011;7163;50.626;12.922;2023-05-07T04:04:37;29.27;;;18.47;;
14167;SDS011;7163;50.626;12.922;2023-05-07T04:09:39;30.70;;;18.20;;
14167;SDS011;7163;50.626;12.922;2023-05-07T04:14:39;34.20;;;19.93;;
14167;SDS011;7163;50.626;12.922;2023-05-07T04:19:40;30.03;;;18.33;;
14167;SDS011;7163;50.626;12.922;2023-05-07T04:24:45;28.13;;;17.70;;
14167;SDS011;7163;50.626;12.922;2023-05-07T04:29:45;28.57;;;17.77;;
14167;SDS011;7163;50.626;12.922;2023-05-07T04:34:47;29.60;;;17.20;;
14167;SDS011;7163;50.626;12.922;2023-05-07T04:39:48;26.07;;;17.37;;
14167;SDS011;7163;50.626;12.922;2023-05-07T04:44:52;28.43;;;17.00;;
14167;SDS011;7163;50.626;12.922;2023-05-07T04:49:53;25.40;;;16.97;;
14167;SDS011;7163;50.626;12.922;2023-05-07T04:54:53;25.10;;;14.93;;
14167;SDS011;7163;50.626;12.922;2023-05-07T04:59:54;24.37;;;15.67;;
14167;SDS011;7163;50.626;12.922;2023-05-07T05:04:54;25.77;;;16.10;;
14167;SDS011;7163;50.626;12.922;2023-05-07T05:09:54;26.23;;;16.33;;
14167;SDS011;7163;50.626;12.922;2023-05-07T05:14:55;23.20;;;15.67;;
14167;SDS011;7163;50.626;12.922;2023-05-07T05:19:56;24.27;;;14.83;;
14167;SDS011;7163;50.626;12.922;2023-05-07T05:24:56;20.63;;;14.23;;
14167;SDS011;7163;50.626;12.922;2023-05-07T05:29:57;21.23;;;13.63;;
14167;SDS011;7163;50.626;12.922;2023-05-07T05:34:57;21.60;;;13.37;;
14167;SDS011;7163;50.626;12.922;2023-05-07T05:39:58;20.77;;;12.33;;
14167;SDS011;7163;50.626;12.922;2023-05-07T05:44:58;19.80;;;13.43;;
14167;SDS011;7163;50.626;12.922;2023-05-07T05:49:59;21.87;;;13.13;;
14167;SDS011;7163;50.626;12.922;2023-05-07T05:54:59;18.23;;;12.03;;
14167;SDS011;7163;50.626;12.922;2023-05-07T06:00:00;21.43;;;13.57;;
14167;SDS011;7163;50.626;12.922;2023-05-07T06:05:01;19.67;;;12.57;;
14167;SDS011;7163;50.626;12.922;2023-05-07T06:10:01;22.30;;;13.83;;
14167;SDS011;7163;50.626;12.922;2023-05-07T06:15:02;17.33;;;11.90;;
14167;SDS011;7163;50.626;12.922;2023-05-07T06:20:03;21.67;;;14.10;;
14167;SDS011;7163;50.626;12.922;2023-05-07T06:25:03;17.23;;;11.73;;
14167;SDS011;7163;50.626;12.922;2023-05-07T06:30:04;20.60;;;11.83;;
14167;SDS011;7163;50.626;12.922;2023-05-07T06:35:05;16.77;;;11.13;;
14167;SDS011;7163;50.626;12.922;2023-05-07T06:40:08;18.37;;;11.23;;
14167;SDS011;7163;50.626;12.922;2023-05-07T06:45:09;16.67;;;11.33;;
14167;SDS011;7163;50.626;12.922;2023-05-07T06:50:10;18.47;;;11.27;;
14167;SDS011;7163;50.626;12.922;2023-05-07T06:55:11;15.67;;;11.13;;
14167;SDS011;7163;50.626;12.922;2023-05-07T07:00:11;18.80;;;12.47;;
14167;SDS011;7163;50.626;12.922;2023-05-07T07:05:12;17.87;;;11.83;;
14167;SDS011;7163;50.626;12.922;2023-05-07T07:10:13;16.63;;;11.27;;
14167;SDS011;7163;50.626;12.922;2023-05-07T07:15:13;15.97;;;11.10;;
14167;SDS011;7163;50.626;12.922;2023-05-07T07:20:14;15.07;;;10.90;;
14167;SDS011;7163;50.626;12.922;2023-05-07T07:25:14;14.83;;;10.33;;
14167;SDS011;7163;50.626;12.922;2023-05-07T07:30:15;17.53;;;10.90;;
14167;SDS011;7163;50.626;12.922;2023-05-07T07:35:15;17.97;;;10.13;;
14167;SDS011;7163;50.626;12.922;2023-05-07T07:40:18;17.67;;;11.47;;
14167;SDS011;7163;50.626;12.922;2023-05-07T07:45:18;16.17;;;9.67;;
14167;SDS011;7163;50.626;12.922;2023-05-07T07:50:19;14.87;;;10.03;;
14167;SDS011;7163;50.626;12.922;2023-05-07T07:55:20;15.80;;;10.27;;
14167;SDS011;7163;50.626;12.922;2023-05-07T08:00:23;13.07;;;9.03;;
14167;SDS011;7163;50.626;12.922;2023-05-07T08:05:24;13.27;;;8.80;;
14167;SDS011;7163;50.626;12.922;2023-05-07T08:10:25;13.27;;;8.97;;
14167;SDS011;7163;50.626;12.922;2023-05-07T08:15:25;11.70;;;7.80;;
14167;SDS011;7163;50.626;12.922;2023-05-07T08:20:26;12.87;;;8.90;;
14167;SDS011;7163;50.626;12.922;2023-05-07T08:25:26;13.20;;;8.33;;
14167;SDS011;7163;50.626;12.922;2023-05-07T08:30:26;12.23;;;7.57;;
14167;SDS011;7163;50.626;12.922;2023-05-07T08:35:27;9.98;;;6.97;;
14167;SDS011;7163;50.626;12.922;2023-05-07T08:40:28;11.88;;;7.82;;
14167;SDS011;7163;50.626;12.922;2023-05-07T08:45:28;8.77;;;6.00;;
14167;SDS011;7163;50.626;12.922;2023-05-07T08:50:30;10.88;;;7.30;;
14167;SDS011;7163;50.626;12.922;2023-05-07T08:55:31;10.13;;;5.78;;
14167;SDS011;7163;50.626;12.922;2023-05-07T09:00:32;9.23;;;5.70;;
14167;SDS011;7163;50.626;12.922;2023-05-07T09:05:33;8.98;;;6.50;;
14167;SDS011;7163;50.626;12.922;2023-05-07T09:10:33;9.85;;;8.02;;
14167;SDS011;7163;50.626;12.922;2023-05-07T09:15:34;9.05;;;6.65;;
14167;SDS011;7163;50.626;12.922;2023-05-07T09:20:36;9.15;;;6.53;;
14167;SDS011;7163;50.626;12.922;2023-05-07T09:25:36;7.85;;;5.68;;
14167;SDS011;7163;50.626;12.922;2023-05-07T09:30:37;7.05;;;5.22;;
14167;SDS011;7163;50.626;12.922;2023-05-07T09:35:37;7.57;;;5.80;;
14167;SDS011;7163;50.626;12.922;2023-05-07T09:40:38;8.35;;;6.18;;
14167;SDS011;7163;50.626;12.922;2023-05-07T09:45:39;8.45;;;6.63;;
14167;SDS011;7163;50.626;12.922;2023-05-07T09:50:41;8.82;;;6.60;;
14167;SDS011;7163;50.626;12.922;2023-05-07T09:55:51;8.57;;;6.10;;
14167;SDS011;7163;50.626;12.922;2023-05-07T10:00:53;8.77;;;5.88;;
14167;SDS011;7163;50.626;12.922;2023-05-07T10:05:53;11.10;;;6.32;;
14167;SDS011;7163;50.626;12.922;2023-05-07T10:10:54;8.15;;;5.97;;
14167;SDS011;7163;50.626;12.922;2023-05-07T10:15:55;9.38;;;6.38;;
14167;SDS011;7163;50.626;12.922;2023-05-07T10:20:56;8.27;;;5.50;;
14167;SDS011;7163;50.626;12.922;2023-05-07T10:26:11;7.30;;;5.57;;
14167;SDS011;7163;50.626;12.922;2023-05-07T10:36:37;6.43;;;5.13;;
14167;SDS011;7163;50.626;12.922;2023-05-07T10:41:39;7.00;;;5.80;;
14167;SDS011;7163;50.626;12.922;2023-05-07T10:46:40;10.57;;;6.82;;
14167;SDS011;7163;50.626;12.922;2023-05-07T10:51:40;7.38;;;6.03;;
14167;SDS011;7163;50.626;12.922;2023-05-07T10:56:41;6.63;;;5.60;;
14167;SDS011;7163;50.626;12.922;2023-05-07T11:02:02;7.47;;;5.82;;
14167;SDS011;7163;50.626;12.922;2023-05-07T11:12:11;8.02;;;6.50;;
14167;SDS011;7163;50.626;12.922;2023-05-07T11:17:12;6.47;;;5.57;;
14167;SDS011;7163;50.626;12.922;2023-05-07T11:27:34;5.35;;;4.25;;
14167;SDS011;7163;50.626;12.922;2023-05-07T11:32:35;6.13;;;5.13;;
14167;SDS011;7163;50.626;12.922;2023-05-07T11:37:35;5.30;;;4.60;;
14167;SDS011;7163;50.626;12.922;2023-05-07T11:42:37;5.78;;;4.32;;
14167;SDS011;7163;50.626;12.922;2023-05-07T11:47:41;4.10;;;3.70;;
14167;SDS011;7163;50.626;12.922;2023-05-07T11:52:59;5.40;;;4.10;;
14167;SDS011;7163;50.626;12.922;2023-05-07T11:58:00;6.93;;;4.80;;
14167;SDS011;7163;50.626;12.922;2023-05-07T12:03:04;3.97;;;3.57;;
14167;SDS011;7163;50.626;12.922;2023-05-07T12:08:05;4.03;;;3.63;;
14167;SDS011;7163;50.626;12.922;2023-05-07T12:13:13;5.50;;;4.55;;
14167;SDS011;7163;50.626;12.922;2023-05-07T12:18:21;4.53;;;3.60;;
14167;SDS011;7163;50.626;12.922;2023-05-07T12:23:22;3.58;;;3.28;;
14167;SDS011;7163;50.626;12.922;2023-05-07T12:28:22;5.07;;;4.18;;
14167;SDS011;7163;50.626;12.922;2023-05-07T12:33:24;4.20;;;3.70;;
14167;SDS011;7163;50.626;12.922;2023-05-07T12:38:25;4.47;;;3.80;;
14167;SDS011;7163;50.626;12.922;2023-05-07T12:43:29;6.80;;;4.00;;
14167;SDS011;7163;50.626;12.922;2023-05-07T12:48:32;3.97;;;3.45;;
14167;SDS011;7163;50.626;12.922;2023-05-07T12:53:33;3.80;;;3.22;;
14167;SDS011;7163;50.626;12.922;2023-05-07T12:58:42;3.80;;;3.17;;
14167;SDS011;7163;50.626;12.922;2023-05-07T13:03:43;4.50;;;3.50;;
14167;SDS011;7163;50.626;12.922;2023-05-07T13:08:49;3.65;;;3.13;;
14167;SDS011;7163;50.626;12.922;2023-05-07T13:13:49;3.78;;;3.38;;
14167;SDS011;7163;50.626;12.922;2023-05-07T13:18:50;4.05;;;3.08;;
14167;SDS011;7163;50.626;12.922;2023-05-07T13:23:50;3.90;;;3.38;;
14167;SDS011;7163;50.626;12.922;2023-05-07T13:28:50;5.15;;;4.38;;
14167;SDS011;7163;50.626;12.922;2023-05-07T13:33:51;4.22;;;3.58;;
14167;SDS011;7163;50.626;12.922;2023-05-07T13:38:52;3.17;;;2.88;;
14167;SDS011;7163;50.626;12.922;2023-05-07T13:43:54;4.93;;;3.03;;
14167;SDS011;7163;50.626;12.922;2023-05-07T13:48:57;3.17;;;2.90;;
14167;SDS011;7163;50.626;12.922;2023-05-07T13:53:58;4.20;;;3.22;;
14167;SDS011;7163;50.626;12.922;2023-05-07T13:58:58;4.10;;;3.70;;
14167;SDS011;7163;50.626;12.922;2023-05-07T14:03:59;4.00;;;3.40;;
14167;SDS011;7163;50.626;12.922;2023-05-07T14:08:59;6.22;;;3.72;;
14167;SDS011;7163;50.626;12.922;2023-05-07T14:14:00;4.25;;;3.85;;
14167;SDS011;7163;50.626;12.922;2023-05-07T14:19:00;7.28;;;3.97;;
14167;SDS011;7163;50.626;12.922;2023-05-07T14:24:01;5.10;;;4.10;;
14167;SDS011;7163;50.626;12.922;2023-05-07T14:29:02;4.30;;;3.90;;
14167;SDS011;7163;50.626;12.922;2023-05-07T14:34:03;5.15;;;4.13;;
14167;SDS011;7163;50.626;12.922;2023-05-07T14:39:04;7.10;;;4.03;;
14167;SDS011;7163;50.626;12.922;2023-05-07T14:44:04;4.97;;;4.30;;
14167;SDS011;7163;50.626;12.922;2023-05-07T14:49:05;4.95;;;4.40;;
14167;SDS011;7163;50.626;12.922;2023-05-07T14:54:05;6.15;;;4.70;;
14167;SDS011;7163;50.626;12.922;2023-05-07T14:59:06;5.40;;;4.90;;
14167;SDS011;7163;50.626;12.922;2023-05-07T15:04:07;6.07;;;5.03;;
14167;SDS011;7163;50.626;12.922;2023-05-07T15:09:08;6.47;;;4.45;;
14167;SDS011;7163;50.626;12.922;2023-05-07T15:14:08;5.55;;;4.13;;
14167;SDS011;7163;50.626;12.922;2023-05-07T15:19:09;5.60;;;4.55;;
14167;SDS011;7163;50.626;12.922;2023-05-07T15:24:10;4.90;;;4.40;;
14167;SDS011;7163;50.626;12.922;2023-05-07T15:29:10;4.70;;;4.18;;
14167;SDS011;7163;50.626;12.922;2023-05-07T15:34:11;4.15;;;3.75;;
14167;SDS011;7163;50.626;12.922;2023-05-07T15:39:12;5.57;;;3.70;;
14167;SDS011;7163;50.626;12.922;2023-05-07T15:44:12;5.82;;;4.03;;
14167;SDS011;7163;50.626;12.922;2023-05-07T15:49:13;4.85;;;4.03;;
14167;SDS011;7163;50.626;12.922;2023-05-07T15:54:13;4.93;;;4.22;;
14167;SDS011;7163;50.626;12.922;2023-05-07T15:59:15;5.93;;;3.65;;
14167;SDS011;7163;50.626;12.922;2023-05-07T16:04:16;4.97;;;4.45;;
14167;SDS011;7163;50.626;12.922;2023-05-07T16:09:17;4.68;;;4.10;;
14167;SDS011;7163;50.626;12.922;2023-05-07T16:14:17;7.40;;;4.40;;
14167;SDS011;7163;50.626;12.922;2023-05-07T16:19:18;5.93;;;4.15;;
14167;SDS011;7163;50.626;12.922;2023-05-07T16:24:18;8.13;;;4.20;;
14167;SDS011;7163;50.626;12.922;2023-05-07T16:29:18;4.40;;;3.92;;
14167;SDS011;7163;50.626;12.922;2023-05-07T16:34:21;6.45;;;4.00;;
14167;SDS011;7163;50.626;12.922;2023-05-07T16:39:22;4.55;;;4.10;;
14167;SDS011;7163;50.626;12.922;2023-05-07T16:44:22;5.85;;;4.47;;
14167;SDS011;7163;50.626;12.922;2023-05-07T16:49:23;4.30;;;3.90;;
14167;SDS011;7163;50.626;12.922;2023-05-07T16:54:23;5.13;;;4.63;;
14167;SDS011;7163;50.626;12.922;2023-05-07T16:59:23;5.72;;;4.75;;
14167;SDS011;7163;50.626;12.922;2023-05-07T17:04:24;6.68;;;5.68;;
14167;SDS011;7163;50.626;12.922;2023-05-07T17:09:25;7.30;;;6.07;;
14167;SDS011;7163;50.626;12.922;2023-05-07T17:14:25;8.23;;;6.28;;
14167;SDS011;7163;50.626;12.922;2023-05-07T17:19:26;9.48;;;6.47;;
14167;SDS011;7163;50.626;12.922;2023-05-07T17:24:26;9.77;;;6.35;;
14167;SDS011;7163;50.626;12.922;2023-05-07T17:29:28;7.43;;;6.13;;
14167;SDS011;7163;50.626;12.922;2023-05-07T17:34:29;7.57;;;6.20;;
14167;SDS011;7163;50.626;12.922;2023-05-07T17:39:31;8.90;;;7.00;;
14167;SDS011;7163;50.626;12.922;2023-05-07T17:44:31;8.07;;;6.37;;
14167;SDS011;7163;50.626;12.922;2023-05-07T17:49:32;7.90;;;5.60;;
14167;SDS011;7163;50.626;12.922;2023-05-07T17:54:34;9.43;;;5.83;;
14167;SDS011;7163;50.626;12.922;2023-05-07T17:59:34;10.47;;;7.93;;
14167;SDS011;7163;50.626;12.922;2023-05-07T18:04:35;8.60;;;6.90;;
14167;SDS011;7163;50.626;12.922;2023-05-07T18:09:35;13.50;;;10.20;;
14167;SDS011;7163;50.626;12.922;2023-05-07T18:14:35;47.27;;;34.13;;
14167;SDS011;7163;50.626;12.922;2023-05-07T18:19:36;39.67;;;26.70;;
14167;SDS011;7163;50.626;12.922;2023-05-07T18:24:36;15.20;;;12.63;;
14167;SDS011;7163;50.626;12.922;2023-05-07T18:29:36;12.17;;;9.57;;
14167;SDS011;7163;50.626;12.922;2023-05-07T18:34:37;11.50;;;9.03;;
14167;SDS011;7163;50.626;12.922;2023-05-07T18:39:37;11.50;;;8.97;;
14167;SDS011;7163;50.626;12.922;2023-05-07T18:44:37;13.57;;;9.27;;
14167;SDS011;7163;50.626;12.922;2023-05-07T18:49:38;12.73;;;9.93;;
14167;SDS011;7163;50.626;12.922;2023-05-07T18:54:38;13.23;;;10.80;;
14167;SDS011;7163;50.626;12.922;2023-05-07T18:59:39;14.53;;;11.43;;
14167;SDS011;7163;50.626;12.922;2023-05-07T19:04:39;19.77;;;13.63;;
14167;SDS011;7163;50.626;12.922;2023-05-07T19:09:40;16.40;;;11.73;;
14167;SDS011;7163;50.626;12.922;2023-05-07T19:14:40;16.77;;;13.00;;
14167;SDS011;7163;50.626;12.922;2023-05-07T19:19:41;18.07;;;12.77;;
14167;SDS011;7163;50.626;12.922;2023-05-07T19:24:47;19.53;;;13.83;;
14167;SDS011;7163;50.626;12.922;2023-05-07T19:29:48;17.37;;;13.20;;
14167;SDS011;7163;50.626;12.922;2023-05-07T19:34:48;19.30;;;13.20;;
14167;SDS011;7163;50.626;12.922;2023-05-07T19:39:48;18.10;;;13.80;;
14167;SDS011;7163;50.626;12.922;2023-05-07T19:44:49;19.13;;;13.10;;
14167;SDS011;7163;50.626;12.922;2023-05-07T19:49:49;20.70;;;15.57;;
14167;SDS011;7163;50.626;12.922;2023-05-07T19:54:50;25.93;;;14.47;;
14167;SDS011;7163;50.626;12.922;2023-05-07T19:59:50;22.80;;;15.47;;
14167;SDS011;7163;50.626;12.922;2023-05-07T20:04:50;22.20;;;14.50;;
14167;SDS011;7163;50.626;12.922;2023-05-07T20:09:51;26.87;;;16.33;;
14167;SDS011;7163;50.626;12.922;2023-05-07T20:14:51;28.83;;;17.47;;
14167;SDS011;7163;50.626;12.922;2023-05-07T20:19:53;23.73;;;16.20;;
14167;SDS011;7163;50.626;12.922;2023-05-07T20:24:53;23.93;;;16.83;;
14167;SDS011;7163;50.626;12.922;2023-05-07T20:29:54;22.87;;;16.83;;
14167;SDS011;7163;50.626;12.922;2023-05-07T20:34:54;20.87;;;16.77;;
14167;SDS011;7163;50.626;12.922;2023-05-07T20:39:57;23.13;;;14.47;;
14167;SDS011;7163;50.626;12.922;2023-05-07T20:44:57;15.40;;;11.90;;
14167;SDS011;7163;50.626;12.922;2023-05-07T20:49:57;13.53;;;9.87;;
14167;SDS011;7163;50.626;12.922;2023-05-07T20:54:58;12.73;;;9.33;;
14167;SDS011;7163;50.626;12.922;2023-05-07T20:59:58;12.77;;;9.70;;
14167;SDS011;7163;50.626;12.922;2023-05-07T21:04:59;13.77;;;10.30;;
14167;SDS011;7163;50.626;12.922;2023-05-07T21:09:59;15.63;;;10.90;;
14167;SDS011;7163;50.626;12.922;2023-05-07T21:14:59;15.77;;;10.67;;
14167;SDS011;7163;50.626;12.922;2023-05-07T21:20:00;14.07;;;10.70;;
14167;SDS011;7163;50.626;12.922;2023-05-07T21:25:02;13.90;;;10.93;;
14167;SDS011;7163;50.626;12.922;2023-05-07T21:30:03;13.53;;;10.53;;
14167;SDS011;7163;50.626;12.922;2023-05-07T21:35:04;13.83;;;10.67;;
14167;SDS011;7163;50.626;12.922;2023-05-07T21:40:05;13.47;;;10.10;;
14167;SDS011;7163;50.626;12.922;2023-05-07T21:45:06;13.70;;;10.23;;
14167;SDS011;7163;50.626;12.922;2023-05-07T21:50:06;13.93;;;10.57;;
14167;SDS011;7163;50.626;12.922;2023-05-07T21:55:07;14.30;;;10.80;;
14167;SDS011;7163;50.626;12.922;2023-05-07T22:00:08;12.87;;;10.23;;
14167;SDS011;7163;50.626;12.922;2023-05-07T22:05:09;16.23;;;11.60;;
14167;SDS011;7163;50.626;12.922;2023-05-07T22:10:10;15.30;;;12.67;;
14167;SDS011;7163;50.626;12.922;2023-05-07T22:15:10;17.90;;;13.47;;
14167;SDS011;7163;50.626;12.922;2023-05-07T22:20:11;18.27;;;13.43;;
14167;SDS011;7163;50.626;12.922;2023-05-07T22:25:11;17.97;;;13.60;;
14167;SDS011;7163;50.626;12.922;2023-05-07T22:30:12;17.80;;;13.60;;
14167;SDS011;7163;50.626;12.922;2023-05-07T22:35:13;18.53;;;14.20;;
14167;SDS011;7163;50.626;12.922;2023-05-07T22:40:14;17.37;;;14.50;;
14167;SDS011;7163;50.626;12.922;2023-05-07T22:45:14;16.23;;;13.77;;
14167;SDS011;7163;50.626;12.922;2023-05-07T22:50:15;16.90;;;13.37;;
14167;SDS011;7163;50.626;12.922;2023-05-07T22:55:16;17.70;;;14.20;;
14167;SDS011;7163;50.626;12.922;2023-05-07T23:00:17;20.53;;;15.73;;
14167;SDS011;7163;50.626;12.922;2023-05-07T23:05:19;22.17;;;16.00;;
14167;SDS011;7163;50.626;12.922;2023-05-07T23:10:21;23.43;;;17.23;;
14167;SDS011;7163;50.626;12.922;2023-05-07T23:15:21;22.37;;;17.70;;
14167;SDS011;7163;50.626;12.922;2023-05-07T23:20:21;23.83;;;19.10;;
14167;SDS011;7163;50.626;12.922;2023-05-07T23:25:22;26.93;;;20.73;;
14167;SDS011;7163;50.626;12.922;2023-05-07T23:30:24;24.73;;;18.53;;
14167;SDS011;7163;50.626;12.922;2023-05-07T23:35:24;25.73;;;19.37;;
14167;SDS011;7163;50.626;12.922;2023-05-07T23:40:25;29.23;;;20.27;;
14167;SDS011;7163;50.626;12.922;2023-05-07T23:45:26;25.80;;;20.57;;
14167;SDS011;7163;50.626;12.922;2023-05-07T23:50:26;26.63;;;20.27;;
14167;SDS011;7163;50.626;12.922;2023-05-07T23:55:26;25.00;;;19.77;;
